Orbital elements of COSMOS 2392
| Launched | 24 July 2002 |
| Flight ended | – |
| Launch site | Tyuratam Missile and Space Center, Kazakhstan (Also known as Baikonur Cosmodrome) |
| Owner | Commonwealth of Independent States (former USSR) |
| NORAD ID | 27470 |
| Date fetched |
Epoch osculation |
Inc. [°] |
Ecc. | RA asc node [hr] |
Arg Peri. [°] |
Mean anom [°] |
Mean motion [rev/day] |
Abs. mag |
| Date fetched |
Epoch osculation |
Inc. [°] |
Ecc. | RA asc node [hr] |
Arg Peri. [°] |
Mean anom [°] |
Mean motion [rev/day] |
Abs. mag |
| 2026 May 04 17:57 | 2026 Apr 30 10:27:24 | 63.3958 | 0.06190 | 9.6979 | 359.0716 | 93.6825 | 12.06805 | 4.743 |
| 2026 May 03 17:57 | 2026 Apr 30 10:27:24 | 63.3958 | 0.06190 | 9.6979 | 359.0716 | 93.6825 | 12.06805 | 4.743 |
| 2026 May 02 17:57 | 2026 Apr 30 10:27:24 | 63.3958 | 0.06190 | 9.6979 | 359.0716 | 93.6825 | 12.06805 | 4.743 |
| 2026 May 01 17:56 | 2026 Apr 30 10:27:24 | 63.3958 | 0.06190 | 9.6979 | 359.0716 | 93.6825 | 12.06805 | 4.743 |
| 2026 Apr 30 17:56 | 2026 Apr 30 10:27:24 | 63.3958 | 0.06190 | 9.6979 | 359.0716 | 93.6825 | 12.06805 | 4.743 |
| 2026 Apr 29 17:57 | 2026 Apr 24 13:41:25 | 63.3968 | 0.06187 | 10.4833 | 359.0518 | 93.6825 | 12.06805 | 4.743 |
| 2026 Apr 28 17:56 | 2026 Apr 24 13:41:25 | 63.3968 | 0.06187 | 10.4833 | 359.0518 | 93.6825 | 12.06805 | 4.743 |
| 2026 Apr 27 17:58 | 2026 Apr 24 13:41:25 | 63.3968 | 0.06187 | 10.4833 | 359.0518 | 93.6825 | 12.06805 | 4.743 |
| 2026 Apr 26 17:58 | 2026 Apr 24 13:41:25 | 63.3968 | 0.06187 | 10.4833 | 359.0518 | 93.6825 | 12.06805 | 4.743 |
| 2026 Apr 25 17:58 | 2026 Apr 24 13:41:25 | 63.3968 | 0.06187 | 10.4833 | 359.0518 | 93.6825 | 12.06805 | 4.743 |
| 2026 Apr 24 17:59 | 2026 Apr 24 13:41:25 | 63.3968 | 0.06187 | 10.4833 | 359.0518 | 93.6825 | 12.06805 | 4.743 |
| 2026 Apr 23 17:57 | 2026 Apr 19 11:55:10 | 63.3983 | 0.06185 | 11.1626 | 359.0294 | 93.6825 | 12.06805 | 4.743 |
| 2026 Apr 22 17:57 | 2026 Apr 19 11:55:10 | 63.3983 | 0.06185 | 11.1626 | 359.0294 | 93.6825 | 12.06805 | 4.743 |
| 2026 Apr 21 17:57 | 2026 Apr 19 11:55:10 | 63.3983 | 0.06185 | 11.1626 | 359.0294 | 93.6825 | 12.06805 | 4.743 |
| 2026 Apr 20 17:57 | 2026 Apr 19 11:55:10 | 63.3983 | 0.06185 | 11.1626 | 359.0294 | 93.6825 | 12.06805 | 4.743 |
| 2026 Apr 19 17:58 | 2026 Apr 19 11:55:10 | 63.3983 | 0.06185 | 11.1626 | 359.0294 | 93.6825 | 12.06805 | 4.743 |
| 2026 Apr 18 17:56 | 2026 Apr 13 04:24:44 | 63.3987 | 0.06182 | 12.0078 | 358.9952 | 93.6825 | 12.06805 | 4.743 |
| 2026 Apr 16 17:57 | 2026 Apr 13 04:24:44 | 63.3987 | 0.06182 | 12.0078 | 358.9952 | 93.6825 | 12.06805 | 4.743 |
| 2026 Apr 14 17:57 | 2026 Apr 13 04:24:44 | 63.3987 | 0.06182 | 12.0078 | 358.9952 | 93.6825 | 12.06805 | 4.743 |
| 2026 Apr 13 17:57 | 2026 Apr 13 04:24:44 | 63.3987 | 0.06182 | 12.0078 | 358.9952 | 93.6825 | 12.06805 | 4.743 |
| 2026 Apr 12 17:57 | 2026 Apr 08 13:02:39 | 63.3999 | 0.06179 | 12.6290 | 358.9706 | 93.6825 | 12.06805 | 4.743 |
| 2026 Apr 11 17:57 | 2026 Apr 08 13:02:39 | 63.3999 | 0.06179 | 12.6290 | 358.9706 | 93.6825 | 12.06805 | 4.743 |
| 2026 Apr 10 17:58 | 2026 Apr 08 13:02:39 | 63.3999 | 0.06179 | 12.6290 | 358.9706 | 93.6825 | 12.06805 | 4.743 |
| 2026 Apr 09 18:01 | 2026 Apr 08 13:02:39 | 63.3999 | 0.06179 | 12.6290 | 358.9706 | 93.6825 | 12.06805 | 4.743 |
| 2026 Apr 08 17:57 | 2026 Apr 08 13:02:39 | 63.3999 | 0.06179 | 12.6290 | 358.9706 | 93.6825 | 12.06805 | 4.743 |
| 2026 Apr 07 17:57 | 2026 Apr 02 07:55:26 | 63.3994 | 0.06175 | 13.4609 | 358.9444 | 93.6825 | 12.06805 | 4.743 |